createdAt,value
2022-12-01T00:01:37.307Z,30.13
2022-12-01T00:04:05.643Z,28.75
2022-12-01T00:06:33.907Z,34.10
2022-12-01T00:09:20.566Z,52.72
2022-12-01T00:11:49.086Z,43.25
2022-12-01T00:14:18.684Z,39.10
2022-12-01T00:19:16.019Z,27.88
2022-12-01T00:21:44.461Z,43.10
2022-12-01T00:24:12.853Z,42.67
2022-12-01T00:26:41.331Z,45.90
2022-12-01T00:29:10.238Z,32.80
2022-12-01T00:31:39.619Z,30.15
2022-12-01T00:34:22.090Z,31.95
2022-12-01T00:36:50.138Z,32.15
2022-12-01T00:39:18.400Z,31.85
2022-12-01T00:41:47.404Z,33.75
2022-12-01T00:44:15.290Z,33.50
2022-12-01T00:46:44.622Z,33.97
2022-12-01T00:49:15.064Z,33.67
2022-12-01T00:51:43.181Z,31.88
2022-12-01T00:54:11.123Z,36.00
2022-12-01T00:56:40.088Z,30.85
2022-12-01T00:59:08.087Z,29.15
2022-12-01T01:01:36.570Z,32.72
2022-12-01T01:04:06.549Z,29.48
2022-12-01T01:06:35.615Z,31.02
2022-12-01T01:09:03.521Z,37.63
2022-12-01T01:11:32.410Z,36.03
2022-12-01T01:14:00.615Z,36.08
2022-12-01T01:16:29.702Z,40.08
2022-12-01T01:18:59.113Z,45.45
2022-12-01T01:21:29.041Z,46.97
2022-12-01T01:23:57.525Z,38.03
2022-12-01T01:26:27.765Z,42.65
2022-12-01T01:28:58.193Z,37.13
2022-12-01T01:31:28.678Z,43.60
2022-12-01T01:33:57.566Z,35.42
2022-12-01T01:36:26.197Z,39.20
2022-12-01T01:38:55.776Z,41.90
2022-12-01T01:41:25.198Z,45.42
2022-12-01T01:43:55.357Z,39.00
2022-12-01T01:46:25.538Z,49.50
2022-12-01T01:48:56.753Z,48.08
2022-12-01T01:51:28.974Z,44.78
2022-12-01T01:54:04.278Z,44.00
2022-12-01T01:56:32.636Z,62.00
2022-12-01T01:59:01.220Z,46.92
2022-12-01T02:01:30.394Z,55.58
2022-12-01T02:03:59.103Z,55.15
2022-12-01T02:06:27.484Z,50.17
2022-12-01T02:08:56.083Z,62.22
2022-12-01T02:11:58.004Z,62.65
2022-12-01T02:14:58.957Z,54.35
2022-12-01T02:17:41.360Z,52.85
2022-12-01T02:20:32.668Z,52.47
2022-12-01T02:23:22.149Z,57.17
2022-12-01T02:25:59.024Z,56.70
2022-12-01T02:28:56.513Z,53.78
2022-12-01T02:31:32.273Z,65.15
2022-12-01T02:34:08.344Z,64.53
2022-12-01T02:36:41.915Z,65.53
2022-12-01T02:39:18.562Z,64.95
2022-12-01T02:41:51.812Z,52.78
2022-12-01T02:44:26.260Z,59.42
2022-12-01T02:46:58.513Z,56.88
2022-12-01T02:49:32.214Z,57.38
2022-12-01T02:52:00.849Z,62.55
2022-12-01T02:54:32.586Z,59.45
2022-12-01T02:57:00.831Z,50.70
2022-12-01T02:59:28.832Z,56.33
2022-12-01T03:02:09.228Z,70.38
2022-12-01T03:07:17.692Z,57.13
2022-12-01T03:09:56.282Z,67.88
2022-12-01T03:12:33.896Z,64.78
2022-12-01T03:15:08.057Z,58.00
2022-12-01T03:17:43.294Z,60.58
2022-12-01T03:20:18.177Z,58.92
2022-12-01T03:22:51.897Z,61.80
2022-12-01T03:25:22.551Z,59.60
2022-12-01T03:28:20.138Z,55.35
2022-12-01T03:30:46.509Z,63.17
2022-12-01T03:33:21.635Z,63.22
2022-12-01T03:35:54.655Z,57.90
2022-12-01T03:38:26.381Z,52.10
2022-12-01T03:40:59.390Z,63.45
2022-12-01T03:43:33.390Z,55.90
2022-12-01T03:46:08.582Z,52.78
2022-12-01T03:48:40.143Z,53.70
2022-12-01T03:51:15.053Z,60.53
2022-12-01T03:53:52.481Z,66.97
2022-12-01T03:56:23.703Z,50.65
2022-12-01T03:58:57.644Z,55.95
2022-12-01T04:01:26.617Z,52.58
2022-12-01T04:03:55.999Z,66.80
2022-12-01T04:06:24.865Z,51.30
2022-12-01T04:08:52.794Z,58.92
2022-12-01T04:11:38.399Z,51.58
2022-12-01T04:14:07.242Z,51.38
2022-12-01T04:16:35.249Z,54.22
2022-12-01T04:19:05.618Z,57.58
2022-12-01T04:24:02.085Z,46.80
2022-12-01T04:26:32.171Z,47.05
2022-12-01T04:29:00.619Z,52.10
2022-12-01T04:31:29.327Z,53.35
2022-12-01T04:33:57.964Z,56.78
2022-12-01T04:36:28.677Z,62.42
2022-12-01T04:38:57.107Z,65.75
2022-12-01T04:41:25.977Z,55.38
2022-12-01T04:43:54.647Z,62.47
2022-12-01T04:46:23.440Z,60.63
2022-12-01T04:48:51.460Z,77.07
2022-12-01T04:51:21.362Z,79.45
2022-12-01T04:53:51.503Z,77.87
2022-12-01T04:56:19.724Z,78.47
2022-12-01T04:58:47.977Z,83.22
2022-12-01T05:01:19.220Z,81.88
2022-12-01T05:03:50.293Z,77.93
2022-12-01T05:06:21.080Z,89.90
2022-12-01T05:08:51.186Z,89.30
2022-12-01T05:11:20.100Z,84.45
2022-12-01T05:13:50.480Z,93.18
2022-12-01T05:16:20.467Z,87.38
2022-12-01T05:18:50.889Z,86.32
2022-12-01T05:21:18.536Z,87.47
2022-12-01T05:23:46.914Z,99.38
2022-12-01T05:26:17.072Z,92.65
2022-12-01T05:28:45.054Z,90.78
2022-12-01T05:31:14.076Z,95.65
2022-12-01T05:33:41.997Z,95.63
2022-12-01T05:36:10.858Z,78.13
2022-12-01T05:38:39.292Z,80.55
2022-12-01T05:41:07.333Z,85.93
2022-12-01T05:43:36.652Z,83.97
2022-12-01T05:46:05.875Z,88.68
2022-12-01T05:48:33.931Z,80.45
2022-12-01T05:51:02.354Z,79.68
2022-12-01T05:53:30.386Z,79.63
2022-12-01T05:55:58.286Z,74.30
2022-12-01T05:58:26.657Z,73.68
2022-12-01T06:00:56.929Z,79.53
2022-12-01T06:03:24.845Z,75.95
2022-12-01T06:05:53.349Z,78.75
2022-12-01T06:08:21.856Z,81.28
2022-12-01T06:10:49.729Z,87.13
2022-12-01T06:13:18.090Z,79.05
2022-12-01T06:15:46.013Z,83.07
2022-12-01T06:18:16.808Z,94.10
2022-12-01T06:20:45.250Z,83.70
2022-12-01T06:23:13.209Z,82.75
2022-12-01T06:25:41.220Z,82.50
2022-12-01T06:28:09.667Z,83.75
2022-12-01T06:30:37.558Z,84.07
2022-12-01T06:33:05.417Z,76.15
2022-12-01T06:35:37.182Z,78.18
2022-12-01T06:38:05.617Z,71.95
2022-12-01T06:40:33.954Z,82.65
2022-12-01T06:43:03.264Z,81.00
2022-12-01T06:45:32.155Z,82.57
2022-12-01T06:48:00.687Z,76.65
2022-12-01T06:50:28.713Z,72.82
2022-12-01T06:52:59.328Z,77.78
2022-12-01T06:55:28.074Z,69.20
2022-12-01T06:57:56.386Z,71.50
2022-12-01T07:00:24.622Z,76.45
2022-12-01T07:02:53.554Z,73.32
2022-12-01T07:05:21.700Z,78.53
2022-12-01T07:07:53.786Z,70.38
2022-12-01T07:10:29.413Z,67.00
2022-12-01T07:12:57.522Z,71.25
2022-12-01T07:15:25.484Z,74.75
2022-12-01T07:17:54.507Z,68.53
2022-12-01T07:20:23.567Z,73.43
2022-12-01T07:22:51.925Z,75.90
2022-12-01T07:25:20.766Z,72.25
2022-12-01T07:27:50.132Z,68.68
2022-12-01T07:30:18.942Z,72.95
2022-12-01T07:32:47.697Z,67.65
2022-12-01T07:35:16.560Z,70.30
2022-12-01T07:37:44.495Z,72.70
2022-12-01T07:40:14.554Z,67.50
2022-12-01T07:42:43.406Z,68.45
2022-12-01T07:45:12.731Z,66.75
2022-12-01T07:47:41.537Z,75.15
2022-12-01T07:50:10.162Z,62.55
2022-12-01T07:52:38.454Z,68.13
2022-12-01T07:55:07.709Z,65.78
2022-12-01T07:57:35.733Z,62.05
2022-12-01T08:00:05.563Z,59.08
2022-12-01T08:02:41.212Z,57.42
2022-12-01T08:05:10.772Z,63.40
2022-12-01T08:07:38.680Z,57.70
2022-12-01T08:10:07.826Z,61.72
2022-12-01T08:12:35.883Z,57.97
2022-12-01T08:15:03.936Z,59.60
2022-12-01T08:17:32.273Z,61.90
2022-12-01T08:20:02.443Z,62.20
2022-12-01T08:22:30.836Z,58.03
2022-12-01T08:24:58.745Z,61.83
2022-12-01T08:27:27.609Z,58.47
2022-12-01T08:29:56.003Z,59.63
2022-12-01T08:32:24.091Z,57.20
2022-12-01T08:34:53.734Z,59.85
2022-12-01T08:37:23.236Z,60.40
2022-12-01T08:39:51.365Z,59.45
2022-12-01T08:42:21.483Z,63.47
2022-12-01T08:44:49.472Z,62.40
2022-12-01T08:47:19.074Z,64.03
2022-12-01T08:49:47.223Z,59.33
2022-12-01T08:52:15.687Z,59.17
2022-12-01T08:54:45.867Z,57.92
2022-12-01T08:57:14.022Z,59.22
2022-12-01T08:59:44.943Z,57.58
2022-12-01T09:02:15.527Z,55.65
2022-12-01T09:04:44.437Z,54.83
2022-12-01T09:07:15.713Z,63.72
2022-12-01T09:09:46.151Z,62.08
2022-12-01T09:12:15.626Z,56.47
2022-12-01T09:14:48.563Z,55.45
2022-12-01T09:17:17.510Z,59.20
2022-12-01T09:19:46.226Z,60.13
2022-12-01T09:22:14.791Z,54.55
2022-12-01T09:24:42.666Z,58.67
2022-12-01T09:27:13.195Z,55.70
2022-12-01T09:29:42.102Z,57.33
2022-12-01T09:32:10.045Z,51.80
2022-12-01T09:34:37.974Z,60.40
2022-12-01T09:37:07.524Z,54.45
2022-12-01T09:39:35.535Z,52.65
2022-12-01T09:42:09.576Z,50.55
2022-12-01T09:44:43.188Z,45.95
2022-12-01T09:47:19.883Z,46.70
2022-12-01T09:49:58.123Z,47.95
2022-12-01T09:52:28.777Z,50.33
2022-12-01T09:55:00.646Z,57.45
2022-12-01T09:57:33.576Z,52.38
2022-12-01T10:00:09.570Z,57.97
2022-12-01T10:02:44.694Z,56.87
2022-12-01T10:05:17.572Z,58.03
2022-12-01T10:07:48.532Z,55.85
2022-12-01T10:10:21.810Z,61.22
2022-12-01T10:12:49.765Z,53.78
2022-12-01T10:15:31.913Z,56.17
2022-12-01T10:18:16.403Z,57.95
2022-12-01T10:20:50.050Z,60.55
2022-12-01T10:23:41.116Z,56.13
2022-12-01T10:26:14.731Z,57.22
2022-12-01T10:29:04.501Z,56.45
2022-12-01T10:31:40.665Z,54.38
2022-12-01T10:34:14.417Z,51.75
2022-12-01T10:36:42.409Z,53.83
2022-12-01T10:39:19.029Z,58.35
2022-12-01T10:41:48.643Z,53.10
2022-12-01T10:44:18.636Z,47.20
2022-12-01T10:49:19.797Z,45.70
2022-12-01T10:51:59.247Z,50.00
2022-12-01T10:54:34.635Z,48.17
2022-12-01T10:57:04.019Z,42.63
2022-12-01T10:59:35.413Z,45.63
2022-12-01T11:02:15.979Z,45.92
2022-12-01T11:04:46.380Z,43.25
2022-12-01T11:07:22.175Z,39.58
2022-12-01T11:10:06.074Z,39.85
2022-12-01T11:12:35.699Z,38.35
2022-12-01T11:15:04.069Z,38.20
2022-12-01T11:17:38.535Z,33.05
2022-12-01T11:20:29.534Z,36.85
2022-12-01T11:23:26.907Z,36.65
2022-12-01T11:26:05.526Z,32.90
2022-12-01T11:28:36.281Z,35.30
2022-12-01T11:31:07.404Z,40.70
2022-12-01T11:33:45.245Z,37.53
2022-12-01T11:36:22.636Z,35.08
2022-12-01T11:38:52.013Z,36.50
2022-12-01T11:41:29.584Z,40.97
2022-12-01T11:44:01.954Z,37.67
2022-12-01T11:46:42.673Z,37.58
2022-12-01T11:49:20.098Z,35.28
2022-12-01T11:51:49.250Z,33.58
2022-12-01T11:54:19.756Z,33.72
2022-12-01T11:57:17.333Z,37.13
2022-12-01T11:59:38.734Z,36.63
2022-12-01T12:02:21.352Z,35.13
2022-12-01T12:05:04.164Z,34.22
2022-12-01T12:07:45.637Z,37.70
2022-12-01T12:10:31.111Z,38.65
2022-12-01T12:13:13.710Z,31.90
2022-12-01T12:15:52.516Z,40.30
2022-12-01T12:18:49.333Z,35.03
2022-12-01T12:21:28.604Z,34.90
2022-12-01T12:24:29.540Z,33.80
2022-12-01T12:27:05.930Z,36.33
2022-12-01T12:29:54.555Z,33.60
2022-12-01T12:32:39.788Z,36.83
2022-12-01T12:35:23.520Z,32.85
2022-12-01T12:38:04.292Z,34.30
2022-12-01T12:40:48.433Z,32.50
2022-12-01T12:43:25.232Z,33.90
2022-12-01T12:46:04.672Z,33.95
2022-12-01T12:49:18.095Z,32.55
2022-12-01T12:51:40.854Z,33.40
2022-12-01T12:54:20.669Z,34.53
2022-12-01T12:56:54.145Z,32.75
2022-12-01T12:59:27.072Z,34.60
2022-12-01T13:02:02.579Z,37.17
2022-12-01T13:04:39.547Z,39.10
2022-12-01T13:07:10.977Z,38.75
2022-12-01T13:09:45.939Z,39.25
2022-12-01T13:12:16.922Z,39.97
2022-12-01T13:14:50.981Z,44.22
2022-12-01T13:17:23.472Z,40.78
2022-12-01T13:19:52.299Z,42.28
2022-12-01T13:22:25.325Z,48.22
2022-12-01T13:24:55.605Z,46.40
2022-12-01T13:27:26.585Z,48.65
2022-12-01T13:29:57.901Z,40.40
2022-12-01T13:32:33.561Z,48.50
2022-12-01T13:35:03.048Z,44.42
2022-12-01T13:40:11.735Z,43.47
2022-12-01T13:42:39.909Z,46.35
2022-12-01T13:45:20.029Z,43.80
2022-12-01T13:47:54.696Z,39.95
2022-12-01T13:50:58.104Z,40.85
2022-12-01T13:53:29.086Z,41.17
2022-12-01T13:56:05.120Z,38.50
2022-12-01T13:58:46.147Z,36.90
2022-12-01T14:01:46.017Z,37.58
2022-12-01T14:04:30.785Z,39.17
2022-12-01T14:07:24.867Z,35.40
2022-12-01T14:09:54.885Z,38.60
2022-12-01T14:12:29.542Z,38.30
2022-12-01T14:15:01.895Z,41.53
2022-12-01T14:17:32.300Z,33.30
2022-12-01T14:20:21.629Z,40.85
2022-12-01T14:23:05.850Z,37.72
2022-12-01T14:25:33.997Z,38.50
2022-12-01T14:28:05.812Z,35.65
2022-12-01T14:31:03.667Z,38.75
2022-12-01T14:33:53.246Z,38.70
2022-12-01T14:36:33.921Z,38.40
2022-12-01T14:39:06.991Z,36.50
2022-12-01T14:41:42.977Z,38.92
2022-12-01T14:44:21.679Z,37.70
2022-12-01T14:46:54.190Z,40.95
2022-12-01T14:49:25.475Z,36.50
2022-12-01T14:51:59.004Z,40.08
2022-12-01T14:54:36.026Z,53.55
2022-12-01T14:57:08.131Z,43.15
2022-12-01T14:59:40.236Z,42.38
2022-12-01T15:02:12.009Z,42.38
2022-12-01T15:05:08.555Z,41.03
2022-12-01T15:07:39.554Z,49.55
2022-12-01T15:10:18.568Z,41.05
2022-12-01T15:12:46.902Z,46.75
2022-12-01T15:15:24.174Z,41.00
2022-12-01T15:17:53.496Z,40.67
2022-12-01T15:20:33.873Z,41.50
2022-12-01T15:23:09.037Z,39.45
2022-12-01T15:25:37.932Z,41.38
2022-12-01T15:28:14.555Z,41.28
2022-12-01T15:30:48.505Z,42.60
2022-12-01T15:33:26.727Z,44.72
2022-12-01T15:35:57.250Z,47.42
2022-12-01T15:38:29.508Z,40.80
2022-12-01T15:41:27.862Z,42.55
2022-12-01T15:43:56.074Z,43.10
2022-12-01T15:46:30.950Z,44.65
2022-12-01T15:49:09.649Z,44.30
2022-12-01T15:51:38.548Z,43.88
2022-12-01T15:54:06.849Z,41.65
2022-12-01T15:56:39.394Z,40.78
2022-12-01T15:59:10.672Z,43.53
2022-12-01T16:01:43.483Z,43.28
2022-12-01T16:04:18.379Z,46.58
2022-12-01T16:06:57.143Z,43.00
2022-12-01T16:09:29.823Z,45.95
2022-12-01T16:12:07.580Z,41.22
2022-12-01T16:14:36.012Z,44.97
2022-12-01T16:17:05.964Z,43.00
2022-12-01T16:19:36.596Z,42.10
2022-12-01T16:22:15.477Z,44.00
2022-12-01T16:24:51.148Z,40.97
2022-12-01T16:27:22.614Z,42.13
2022-12-01T16:29:53.527Z,47.15
2022-12-01T16:32:25.186Z,42.47
2022-12-01T16:34:55.214Z,40.50
2022-12-01T16:37:23.480Z,38.15
2022-12-01T16:39:51.847Z,40.47
2022-12-01T16:42:22.128Z,32.65
2022-12-01T16:44:51.045Z,35.55
2022-12-01T16:47:22.567Z,35.53
2022-12-01T16:49:52.719Z,42.70
2022-12-01T16:52:44.106Z,36.33
2022-12-01T16:55:25.597Z,38.67
2022-12-01T16:57:53.604Z,37.70
2022-12-01T17:00:22.714Z,37.47
2022-12-01T17:02:52.652Z,39.88
2022-12-01T17:07:50.865Z,33.53
2022-12-01T17:10:21.076Z,38.42
2022-12-01T17:15:19.582Z,39.53
2022-12-01T17:17:47.562Z,39.28
2022-12-01T17:20:16.906Z,36.05
2022-12-01T17:22:46.337Z,36.38
2022-12-01T17:25:14.329Z,41.67
2022-12-01T17:27:44.618Z,44.42
2022-12-01T17:30:13.817Z,38.03
2022-12-01T17:32:42.263Z,44.55
2022-12-01T17:35:11.296Z,44.72
2022-12-01T17:37:39.374Z,43.47
2022-12-01T17:40:15.237Z,43.72
2022-12-01T17:42:49.923Z,45.15
2022-12-01T17:45:19.990Z,42.28
2022-12-01T17:47:47.918Z,43.80
2022-12-01T17:50:16.774Z,38.58
2022-12-01T17:52:47.715Z,43.92
2022-12-01T17:55:17.164Z,46.42
2022-12-01T17:57:45.534Z,43.35
2022-12-01T18:00:15.563Z,45.90
2022-12-01T18:02:43.636Z,44.90
2022-12-01T18:05:12.241Z,50.92
2022-12-01T18:07:40.733Z,49.22
2022-12-01T18:10:09.134Z,45.88
2022-12-01T18:12:38.859Z,43.25
2022-12-01T18:15:08.687Z,45.10
2022-12-01T18:17:37.254Z,45.15
2022-12-01T18:20:06.023Z,52.08
2022-12-01T18:22:34.380Z,56.63
2022-12-01T18:25:03.238Z,54.70
2022-12-01T18:27:31.173Z,55.63
2022-12-01T18:30:01.431Z,55.05
2022-12-01T18:32:29.380Z,52.67
2022-12-01T18:34:57.783Z,55.25
2022-12-01T18:37:26.134Z,50.70
2022-12-01T18:39:55.937Z,59.17
2022-12-01T18:42:24.462Z,56.80
2022-12-01T18:44:53.009Z,57.22
2022-12-01T18:47:22.366Z,53.55
2022-12-01T18:49:50.758Z,57.58
2022-12-01T18:52:19.154Z,57.05
2022-12-01T18:54:47.141Z,59.30
2022-12-01T18:57:15.682Z,61.95
2022-12-01T18:59:44.159Z,57.83
2022-12-01T19:02:12.237Z,64.72
2022-12-01T19:04:42.217Z,59.15
2022-12-01T19:07:11.105Z,58.92
2022-12-01T19:09:39.074Z,61.17
2022-12-01T19:12:08.080Z,59.22
2022-12-01T19:14:36.986Z,57.80
2022-12-01T19:17:04.906Z,60.05
2022-12-01T19:19:37.380Z,60.40
2022-12-01T19:22:08.232Z,64.20
2022-12-01T19:24:36.141Z,57.25
2022-12-01T19:27:04.716Z,57.28
2022-12-01T19:29:33.201Z,63.25
2022-12-01T19:32:01.847Z,61.20
2022-12-01T19:34:29.786Z,54.88
2022-12-01T19:36:58.693Z,56.20
2022-12-01T19:39:28.090Z,56.25
2022-12-01T19:41:57.623Z,55.33
2022-12-01T19:44:26.651Z,59.45
2022-12-01T19:46:56.672Z,56.28
2022-12-01T19:51:52.485Z,52.03
2022-12-01T19:54:22.786Z,55.90
2022-12-01T19:56:53.237Z,51.83
2022-12-01T19:59:21.821Z,53.10
2022-12-01T20:01:50.237Z,55.15
2022-12-01T20:04:18.162Z,54.13
2022-12-01T20:06:46.540Z,57.42
2022-12-01T20:09:15.907Z,59.55
2022-12-01T20:11:43.910Z,56.45
2022-12-01T20:14:13.691Z,59.30
2022-12-01T20:16:42.628Z,59.40
2022-12-01T20:19:12.256Z,55.72
2022-12-01T20:21:43.473Z,55.55
2022-12-01T20:24:14.018Z,62.17
2022-12-01T20:26:45.099Z,62.05
2022-12-01T20:29:16.452Z,58.05
2022-12-01T20:31:46.474Z,59.42
2022-12-01T20:34:17.399Z,61.92
2022-12-01T20:36:47.608Z,61.25
2022-12-01T20:39:15.993Z,53.55
2022-12-01T20:41:45.147Z,44.35
2022-12-01T20:44:16.131Z,45.97
2022-12-01T20:46:45.722Z,45.78
2022-12-01T20:51:43.211Z,49.15
2022-12-01T20:54:30.309Z,48.00
2022-12-01T20:56:59.996Z,49.58
2022-12-01T20:59:30.446Z,45.07
2022-12-01T21:01:58.981Z,48.22
2022-12-01T21:04:28.029Z,44.63
2022-12-01T21:06:56.931Z,51.28
2022-12-01T21:09:25.599Z,60.85
2022-12-01T21:12:11.285Z,45.67
2022-12-01T21:14:43.396Z,49.38
2022-12-01T21:17:23.466Z,49.67
2022-12-01T21:19:57.408Z,48.70
2022-12-01T21:22:26.835Z,55.47
2022-12-01T21:25:02.914Z,54.53
2022-12-01T21:27:31.663Z,51.75
2022-12-01T21:30:01.661Z,59.85
2022-12-01T21:32:32.729Z,54.58
2022-12-01T21:35:06.916Z,55.58
2022-12-01T21:37:36.088Z,55.15
2022-12-01T21:40:04.322Z,61.05
2022-12-01T21:42:33.092Z,58.55
2022-12-01T21:45:03.277Z,57.88
2022-12-01T21:47:31.760Z,58.70
2022-12-01T21:50:04.244Z,57.53
2022-12-01T21:52:44.002Z,63.05
2022-12-01T21:55:35.544Z,59.60
2022-12-01T21:58:14.438Z,60.25
2022-12-01T22:00:44.200Z,57.60
2022-12-01T22:03:28.601Z,61.22
2022-12-01T22:08:53.154Z,54.90
2022-12-01T22:11:23.540Z,61.28
2022-12-01T22:16:29.686Z,60.97
2022-12-01T22:18:59.480Z,64.00
2022-12-01T22:21:37.033Z,63.88
2022-12-01T22:24:24.109Z,62.90
2022-12-01T22:26:59.792Z,78.43
2022-12-01T22:29:30.901Z,69.80
2022-12-01T22:32:35.458Z,69.38
2022-12-01T22:35:22.881Z,66.65
2022-12-01T22:37:53.049Z,60.65
2022-12-01T22:40:44.207Z,71.18
2022-12-01T22:43:27.982Z,74.97
2022-12-01T22:46:20.791Z,67.05
2022-12-01T22:48:53.491Z,65.88
2022-12-01T22:51:42.876Z,63.17
2022-12-01T22:54:36.567Z,71.53
2022-12-01T22:57:13.622Z,63.03
2022-12-01T22:59:44.417Z,62.08
2022-12-01T23:02:21.204Z,70.82
2022-12-01T23:04:54.563Z,72.47
2022-12-01T23:07:34.773Z,62.50
2022-12-01T23:10:13.524Z,64.65
2022-12-01T23:12:42.129Z,59.50
2022-12-01T23:15:22.659Z,67.65
2022-12-01T23:17:51.166Z,64.55
2022-12-01T23:20:38.971Z,59.10
2022-12-01T23:23:13.777Z,57.53
2022-12-01T23:25:44.164Z,60.72
2022-12-01T23:30:43.991Z,58.55
2022-12-01T23:33:20.980Z,59.08
2022-12-01T23:35:54.358Z,53.38
2022-12-01T23:38:26.125Z,55.15
2022-12-01T23:40:58.965Z,57.15
2022-12-01T23:43:30.830Z,56.67
2022-12-01T23:46:05.477Z,59.05
2022-12-01T23:48:37.560Z,53.17
2022-12-01T23:51:15.810Z,50.45
2022-12-01T23:53:44.553Z,52.92
2022-12-01T23:56:15.477Z,55.38
2022-12-01T23:58:45.282Z,50.17
